Budapest Bridge — VRIZ5 — position and weather

sailwx.info

Track history (hours):
 
Tides and Currents Weather Stations Pressure Air Temp Water Temp Dewpoint Dewpoint Depression Visibility Wind Speed Wind Dir Waves Ship Positions

Budapest Bridge

Last reported at 2017-Apr-22 10:46 UTC. Time now 2017-Apr-23 08:11 UTC.
Position N 35°57' W 005°39'.

Length 268 m; draft 11.4 m.

Type: Cargo ship. MMSI: 477434200.

Date/timePositionNaut miles runAvg speedWind from/ knotsBaromVisibWave heightAir tempDewpointWater temp
2017-Apr-22 10:46N 35°57' W 005°39'621.4
2017-Apr-22 10:30N 35°59' W 005°33'1121.0
2017-Apr-22 10:00N 36°02' W 005°20'1020.2
2017-Apr-22 09:30N 36°04' W 005°08'1020.2
2017-Apr-22 09:00N 36°05' W 004°55'21219.4
2017-Apr-21 22:03N 37°23' W 000°49'120.6
2017-Apr-21 22:01N 37°23' W 000°48'2020.4
2017-Apr-21 21:01N 37°38' W 000°31'1020.0
2017-Apr-21 20:30N 37°47' W 000°24'1120.1
2017-Apr-21 19:59N 37°55' W 000°16'10720.0
2017-Apr-21 14:38N 39°21' E 001°05'319.9
2017-Apr-21 14:28N 39°24' E 001°08'2019.8
2017-Apr-21 13:26N 39°41' E 001°23'919.9
2017-Apr-21 13:00N 39°48' E 001°30'1020.1
2017-Apr-21 12:31N 39°55' E 001°38'1020.2
2017-Apr-21 12:00N 40°03' E 001°47'1020.1
2017-Apr-21 11:30N 40°11' E 001°55'1020.0
2017-Apr-21 11:00N 40°18' E 002°04'1020.0
2017-Apr-21 10:30N 40°26' E 002°12'1020.5
2017-Apr-21 10:00N 40°34' E 002°20'1020.4
2017-Apr-21 09:30N 40°42' E 002°29'1020.2
2017-Apr-21 09:00N 40°50' E 002°37'1020.1
2017-Apr-21 08:30N 40°58' E 002°46'1320.0
2017-Apr-21 07:51N 41°08' E 002°57'14820.4
2017-Apr-21 00:37N 43°07' E 004°55'217.8
2017-Apr-21 00:30N 43°08' E 004°57'611.3
2017-Apr-21 00:00N 43°13' E 005°00'918.0
2017-Apr-20 23:30N 43°22' E 004°58'6 0.6
2017-Apr-20 14:15N 43°25' E 004°51'0 0.0
2017-Apr-20 09:06N 43°25' E 004°51'0 0.0
2017-Apr-20 08:57N 43°25' E 004°51'0 0.0
2017-Apr-19 16:30N 43°25' E 004°51'0 0.3
2017-Apr-19 15:49N 43°25' E 004°51'0 0.2
2017-Apr-19 15:21N 43°25' E 004°51'2 4.3
2017-Apr-19 14:57N 43°24' E 004°53'612.5
2017-Apr-19 14:31N 43°21' E 004°59'1211.5
2017-Apr-19 13:30N 43°09' E 005°00'6 1.1
2017-Apr-19 08:07N 43°07' E 004°52'0 1.6
2017-Apr-19 08:00N 43°08' E 004°52'7 9.1
2017-Apr-19 07:13N 43°12' E 005°00'1 5.9
2017-Apr-19 06:59N 43°11' E 005°02'1912.3
2017-Apr-19 05:26N 42°53' E 004°53'711.8
2017-Apr-19 04:52N 42°47' E 004°54'2 1.1
2017-Apr-19 02:52N 42°49' E 004°55'2 1.7
2017-Apr-19 01:27N 42°51' E 004°56'1 1.8
2017-Apr-19 00:53N 42°52' E 004°57'3 2.0
2017-Apr-18 23:27N 42°55' E 004°58'1 2.4
2017-Apr-18 22:53N 42°56' E 004°58'5 2.7
2017-Apr-18 21:13N 43°00' E 004°58'1 2.7
2017-Apr-18 20:53N 43°01' E 004°57'4 2.7
2017-Apr-18 19:27N 43°04' E 004°54'5 2.6
2017-Apr-18 17:28N 43°09' E 004°58'5 8.7
2017-Apr-18 16:54N 43°09' E 005°05'13 9.1
2017-Apr-18 15:28N 43°04' E 005°21'6 9.9
2017-Apr-18 14:54N 43°02' E 005°28'8010.3
2017-Apr-18 07:08N 43°13' E 007°17'212.9
2017-Apr-18 06:59N 43°14' E 007°19'613.3
2017-Apr-18 06:30N 43°17' E 007°27'713.4
2017-Apr-18 06:00N 43°21' E 007°34'713.3
2017-Apr-18 05:30N 43°25' E 007°41'713.3
2017-Apr-18 05:00N 43°29' E 007°49'713.3
2017-Apr-18 04:30N 43°33' E 007°56'713.2
2017-Apr-18 04:00N 43°37' E 008°04'713.2
2017-Apr-18 03:30N 43°40' E 008°11'713.4
2017-Apr-18 03:00N 43°44' E 008°19'713.3
2017-Apr-18 02:30N 43°48' E 008°26'713.2
2017-Apr-18 02:00N 43°54' E 008°32'713.0
2017-Apr-18 01:30N 43°59' E 008°37'713.3
2017-Apr-18 01:00N 44°04' E 008°42'713.0
2017-Apr-18 00:30N 44°10' E 008°47'713.1
2017-Apr-18 00:00N 44°15' E 008°53'612.8
2017-Apr-17 23:30N 44°20' E 008°58'4 8.0
2017-Apr-17 23:00N 44°24' E 008°55'1 1.8
2017-Apr-17 22:30N 44°24' E 008°54'0 0.0
2017-Apr-17 21:57N 44°24' E 008°54'0 0.0
2017-Apr-17 21:27N 44°24' E 008°54'0 0.0
2017-Apr-17 20:54N 44°24' E 008°54'0 0.0
2017-Apr-17 20:30N 44°24' E 008°54'0 0.0
2017-Apr-17 20:00N 44°24' E 008°54'0 0.0
2017-Apr-17 19:30N 44°24' E 008°54'0 0.0
2017-Apr-17 19:00N 44°24' E 008°54'0 0.0
2017-Apr-17 18:30N 44°24' E 008°54'0 0.0
2017-Apr-17 18:00N 44°24' E 008°54'0 0.0
2017-Apr-17 17:30N 44°24' E 008°54'0 0.0
2017-Apr-17 17:00N 44°24' E 008°54'0 0.0
2017-Apr-17 16:30N 44°24' E 008°54'0 0.0
2017-Apr-17 16:00N 44°24' E 008°54'0 0.0
2017-Apr-17 15:30N 44°24' E 008°54'0 0.0
2017-Apr-17 15:00N 44°24' E 008°54'0 0.0
2017-Apr-17 14:30N 44°24' E 008°54'0 0.0
2017-Apr-17 13:30N 44°24' E 008°54'0 0.0
2017-Apr-17 13:00N 44°24' E 008°54'0 0.0
2017-Apr-17 12:30N 44°24' E 008°54'0 0.0
2017-Apr-17 12:00N 44°24' E 008°54'0 0.0
2017-Apr-17 11:30N 44°24' E 008°54'0 0.0
2017-Apr-17 11:00N 44°24' E 008°54'0 0.0
2017-Apr-17 10:30N 44°24' E 008°54'0 0.0
2017-Apr-17 10:00N 44°24' E 008°54'0 0.0
2017-Apr-17 09:30N 44°24' E 008°54'0 0.0
2017-Apr-17 09:00N 44°24' E 008°54'0 0.0
2017-Apr-17 08:30N 44°24' E 008°54'0 0.0
2017-Apr-17 08:00N 44°24' E 008°54'0 0.0
2017-Apr-17 07:30N 44°24' E 008°54'0 0.0
2017-Apr-17 07:00N 44°24' E 008°54'0 0.0
2017-Apr-17 06:30N 44°24' E 008°54'0 0.0
2017-Apr-17 06:00N 44°24' E 008°54'0 0.0
2017-Apr-17 05:27N 44°24' E 008°54'0 0.0
2017-Apr-17 05:00N 44°24' E 008°54'1 2.3
2017-Apr-17 04:31N 44°24' E 008°55'2 4.6
2017-Apr-17 04:00N 44°22' E 008°58'612.4
2017-Apr-17 03:30N 44°17' E 009°02'4 7.9
2017-Apr-17 03:00N 44°13' E 009°03'1 1.5
2017-Apr-17 02:30N 44°13' E 009°02'1 1.9
2017-Apr-17 02:00N 44°14' E 009°03'1 2.4
2017-Apr-17 01:30N 44°13' E 009°04'510.4
2017-Apr-17 01:01N 44°12' E 009°11'1019.8
2017-Apr-17 00:30N 44°07' E 009°23'1019.9
2017-Apr-17 00:00N 44°03' E 009°36'1019.7
2017-Apr-16 23:30N 43°60' E 009°49'511.0
2017-Apr-16 23:00N 44°05' E 009°51'1 2.3
2017-Apr-16 22:27N 44°06' E 009°51'0 0.0
2017-Apr-16 22:00N 44°06' E 009°51'0 0.0
2017-Apr-16 21:30N 44°06' E 009°51'0 0.0
2017-Apr-16 21:00N 44°06' E 009°51'0 0.0
2017-Apr-16 20:30N 44°06' E 009°51'0 0.0
2017-Apr-16 20:00N 44°06' E 009°51'0 0.0
2017-Apr-16 19:30N 44°06' E 009°51'0 0.0
2017-Apr-16 19:00N 44°06' E 009°51'0 0.0
2017-Apr-16 18:30N 44°06' E 009°51'0 0.0
2017-Apr-16 18:00N 44°06' E 009°51'0 0.0
2017-Apr-16 17:30N 44°06' E 009°51'0 0.0
2017-Apr-16 16:57N 44°06' E 009°51'0 0.0
2017-Apr-16 16:30N 44°06' E 009°51'0 0.0
2017-Apr-16 16:00N 44°06' E 009°51'0 0.0
2017-Apr-16 15:30N 44°06' E 009°51'0 0.0
2017-Apr-16 14:57N 44°06' E 009°51'0 0.0
2017-Apr-16 14:00N 44°06' E 009°51'0 0.0
2017-Apr-16 13:30N 44°06' E 009°51'0 0.0
2017-Apr-16 13:00N 44°06' E 009°51'0 0.0
2017-Apr-16 12:30N 44°06' E 009°51'0 0.0
2017-Apr-16 11:57N 44°06' E 009°51'0 0.0
2017-Apr-16 11:30N 44°06' E 009°51'0 0.0
2017-Apr-16 10:57N 44°06' E 009°51'0 0.0
2017-Apr-16 10:30N 44°06' E 009°51'0 0.7
2017-Apr-16 10:00N 44°06' E 009°51'3 5.8
2017-Apr-16 09:30N 44°03' E 009°52'2 3.3
2017-Apr-16 09:00N 44°02' E 009°54'1 1.9
2017-Apr-16 08:29N 44°02' E 009°55'0 0.1
2017-Apr-16 07:53N 44°02' E 009°55'0 0.0
2017-Apr-16 07:29N 44°02' E 009°55'0 0.1
2017-Apr-16 06:59N 44°02' E 009°55'0 0.0
2017-Apr-16 06:29N 44°02' E 009°55'0 0.0
2017-Apr-16 05:59N 44°02' E 009°55'0 0.0
2017-Apr-16 05:29N 44°02' E 009°55'0 0.0
2017-Apr-16 04:56N 44°02' E 009°55'0 0.0
2017-Apr-16 04:26N 44°02' E 009°55'0 0.0
2017-Apr-16 03:59N 44°02' E 009°55'0 0.0
2017-Apr-16 03:29N 44°02' E 009°55'0 0.0
2017-Apr-16 02:59N 44°02' E 009°55'0 0.0
2017-Apr-16 02:29N 44°02' E 009°55'0 0.0
2017-Apr-16 01:59N 44°02' E 009°55'0 0.1
2017-Apr-16 01:29N 44°02' E 009°55'0 0.1
2017-Apr-16 00:59N 44°02' E 009°55'0 0.1
2017-Apr-16 00:29N 44°02' E 009°55'0 0.0
2017-Apr-15 23:59N 44°02' E 009°55'0 0.1
2017-Apr-15 23:29N 44°02' E 009°55'0 0.0
2017-Apr-15 22:59N 44°02' E 009°55'0 0.1
2017-Apr-15 22:29N 44°02' E 009°55'0 0.0
2017-Apr-15 21:59N 44°02' E 009°55'0 0.0
2017-Apr-15 21:29N 44°02' E 009°55'0 0.4
2017-Apr-15 20:59N 44°02' E 009°55'0 0.1
2017-Apr-15 20:29N 44°02' E 009°55'0 0.0
2017-Apr-15 19:59N 44°02' E 009°55'0 0.0
2017-Apr-15 19:29N 44°02' E 009°55'0 0.0
2017-Apr-15 18:59N 44°02' E 009°55'0 0.1
2017-Apr-15 18:29N 44°02' E 009°55'0 0.1
2017-Apr-15 17:59N 44°02' E 009°55'0 0.0
2017-Apr-15 17:29N 44°02' E 009°55'0 0.1
2017-Apr-15 16:59N 44°02' E 009°55'0 0.0
2017-Apr-15 16:29N 44°02' E 009°55'0 0.0
2017-Apr-15 15:53N 44°02' E 009°55'0 0.0
2017-Apr-15 15:29N 44°02' E 009°55'0 0.0
2017-Apr-15 14:59N 44°02' E 009°55'0 0.0
2017-Apr-15 14:29N 44°02' E 009°55'0 0.0
2017-Apr-15 13:59N 44°02' E 009°55'0 0.1
2017-Apr-15 13:26N 44°02' E 009°55'0 0.1
2017-Apr-15 12:59N 44°02' E 009°55'0 0.0
2017-Apr-15 12:29N 44°02' E 009°55'0 0.0
2017-Apr-15 11:59N 44°02' E 009°55'0 0.0
2017-Apr-15 11:29N 44°02' E 009°55'0 0.0
2017-Apr-15 10:59N 44°02' E 009°55'0 0.0
2017-Apr-15 10:29N 44°02' E 009°55'0 0.1
2017-Apr-15 09:59N 44°02' E 009°55'0 0.0
2017-Apr-15 09:29N 44°02' E 009°55'0 0.0
2017-Apr-15 08:59N 44°02' E 009°55'0 0.0
2017-Apr-15 08:29N 44°02' E 009°55'0 0.0
2017-Apr-15 07:56N 44°02' E 009°55'0 0.0
2017-Apr-15 07:26N 44°02' E 009°55'0 0.0
2017-Apr-15 06:59N 44°02' E 009°55'0 0.3
2017-Apr-15 06:30N 44°02' E 009°55'3 6.8
2017-Apr-15 06:01N 43°59' E 009°56'713.2
2017-Apr-15 05:30N 43°52' E 009°55'713.5
2017-Apr-15 05:00N 43°46' E 009°53'713.2
2017-Apr-15 04:30N 43°39' E 009°52'612.6
2017-Apr-15 04:00N 43°33' E 009°54'713.0
2017-Apr-15 03:30N 43°31' E 010°02'612.6
2017-Apr-15 03:00N 43°31' E 010°11'5 9.0
2017-Apr-15 02:30N 43°32' E 010°17'2 4.4
2017-Apr-15 02:00N 43°34' E 010°18'1 1.1
2017-Apr-15 01:29N 43°35' E 010°18'0 0.0
2017-Apr-15 00:59N 43°35' E 010°18'0 0.0
2017-Apr-15 00:29N 43°35' E 010°18'0 0.0
2017-Apr-14 23:59N 43°35' E 010°18'0 0.0
2017-Apr-14 23:29N 43°35' E 010°18'0 0.1
2017-Apr-14 22:59N 43°35' E 010°18'0 0.0
2017-Apr-14 22:29N 43°35' E 010°18'0 0.0
2017-Apr-14 21:53N 43°35' E 010°18'0 0.0
2017-Apr-14 21:29N 43°35' E 010°18'0 0.0
2017-Apr-14 20:53N 43°35' E 010°18'0 0.0
2017-Apr-14 20:29N 43°35' E 010°18'0 0.0
2017-Apr-14 19:59N 43°35' E 010°18'0 0.0
2017-Apr-14 19:26N 43°35' E 010°18'0 0.0
2017-Apr-14 18:56N 43°35' E 010°18'0 0.0
2017-Apr-14 18:26N 43°35' E 010°18'0 0.0
2017-Apr-14 17:59N 43°35' E 010°18'0 0.0
2017-Apr-14 17:29N 43°35' E 010°18'0 0.0
2017-Apr-14 16:59N 43°35' E 010°18'0 0.0
2017-Apr-14 16:29N 43°35' E 010°18'0 0.1
2017-Apr-14 15:59N 43°35' E 010°18'0 0.0
2017-Apr-14 15:29N 43°35' E 010°18'0 0.0
2017-Apr-14 14:59N 43°35' E 010°18'0 0.0
2017-Apr-14 14:29N 43°35' E 010°18'0 0.0
2017-Apr-14 13:29N 43°35' E 010°18'0 0.0
2017-Apr-14 12:56N 43°35' E 010°18'0 0.0
2017-Apr-14 12:29N 43°35' E 010°18'0 0.0
2017-Apr-14 11:53N 43°35' E 010°18'0 0.0
2017-Apr-14 11:29N 43°35' E 010°18'0 0.0
2017-Apr-14 11:00N 43°35' E 010°18'1 1.9
2017-Apr-14 10:31N 43°34' E 010°18'3 6.8
2017-Apr-14 10:01N 43°31' E 010°15'4 8.0
2017-Apr-14 09:31N 43°28' E 010°12'713.3
2017-Apr-14 09:00N 43°21' E 010°10'713.8
2017-Apr-14 08:30N 43°15' E 010°07'815.5
2017-Apr-14 07:59N 43°07' E 010°03'815.7
2017-Apr-14 07:30N 42°60' E 010°00'2316.4
2017-Apr-14 06:06N 42°38' E 009°51'817.0
2017-Apr-14 05:36N 42°29' E 009°50'2716.8
2017-Apr-14 03:59N 42°10' E 010°15'19316.7
2017-Apr-13 16:22N 40°31' E 013°57'37 1.4
2017-Apr-12 13:44N 40°40' E 014°45'1 3.7
2017-Apr-12 13:23N 40°39' E 014°44'  
Track history (hours):
 
Tides and Currents Weather Stations Pressure Air Temp Water Temp Dewpoint Dewpoint Depression Visibility Wind Speed Wind Dir Waves Ship Positions

Budapest Bridge

Last reported at 2017-Apr-22 10:46 UTC. Time now 2017-Apr-23 08:11 UTC.
Position N 35°57' W 005°39'.

Length 268 m; draft 11.4 m.

Type: Cargo ship. MMSI: 477434200.

Date/timePositionNaut miles runAvg speedWind from/ knotsBaromVisibWave heightAir tempDewpointWater temp
2017-Apr-22 10:46N 35°57' W 005°39'621.4
2017-Apr-22 10:30N 35°59' W 005°33'1121.0
2017-Apr-22 10:00N 36°02' W 005°20'1020.2
2017-Apr-22 09:30N 36°04' W 005°08'1020.2
2017-Apr-22 09:00N 36°05' W 004°55'21219.4
2017-Apr-21 22:03N 37°23' W 000°49'120.6
2017-Apr-21 22:01N 37°23' W 000°48'2020.4
2017-Apr-21 21:01N 37°38' W 000°31'1020.0
2017-Apr-21 20:30N 37°47' W 000°24'1120.1
2017-Apr-21 19:59N 37°55' W 000°16'10720.0
2017-Apr-21 14:38N 39°21' E 001°05'319.9
2017-Apr-21 14:28N 39°24' E 001°08'2019.8
2017-Apr-21 13:26N 39°41' E 001°23'919.9
2017-Apr-21 13:00N 39°48' E 001°30'1020.1
2017-Apr-21 12:31N 39°55' E 001°38'1020.2
2017-Apr-21 12:00N 40°03' E 001°47'1020.1
2017-Apr-21 11:30N 40°11' E 001°55'1020.0
2017-Apr-21 11:00N 40°18' E 002°04'1020.0
2017-Apr-21 10:30N 40°26' E 002°12'1020.5
2017-Apr-21 10:00N 40°34' E 002°20'1020.4
2017-Apr-21 09:30N 40°42' E 002°29'1020.2
2017-Apr-21 09:00N 40°50' E 002°37'1020.1
2017-Apr-21 08:30N 40°58' E 002°46'1320.0
2017-Apr-21 07:51N 41°08' E 002°57'14820.4
2017-Apr-21 00:37N 43°07' E 004°55'217.8
2017-Apr-21 00:30N 43°08' E 004°57'611.3
2017-Apr-21 00:00N 43°13' E 005°00'918.0
2017-Apr-20 23:30N 43°22' E 004°58'6 0.6
2017-Apr-20 14:15N 43°25' E 004°51'0 0.0
2017-Apr-20 09:06N 43°25' E 004°51'0 0.0
2017-Apr-20 08:57N 43°25' E 004°51'0 0.0
2017-Apr-19 16:30N 43°25' E 004°51'0 0.3
2017-Apr-19 15:49N 43°25' E 004°51'0 0.2
2017-Apr-19 15:21N 43°25' E 004°51'2 4.3
2017-Apr-19 14:57N 43°24' E 004°53'612.5
2017-Apr-19 14:31N 43°21' E 004°59'1211.5
2017-Apr-19 13:30N 43°09' E 005°00'6 1.1
2017-Apr-19 08:07N 43°07' E 004°52'0 1.6
2017-Apr-19 08:00N 43°08' E 004°52'7 9.1
2017-Apr-19 07:13N 43°12' E 005°00'1 5.9
2017-Apr-19 06:59N 43°11' E 005°02'1912.3
2017-Apr-19 05:26N 42°53' E 004°53'711.8
2017-Apr-19 04:52N 42°47' E 004°54'2 1.1
2017-Apr-19 02:52N 42°49' E 004°55'2 1.7
2017-Apr-19 01:27N 42°51' E 004°56'1 1.8
2017-Apr-19 00:53N 42°52' E 004°57'3 2.0
2017-Apr-18 23:27N 42°55' E 004°58'1 2.4
2017-Apr-18 22:53N 42°56' E 004°58'5 2.7
2017-Apr-18 21:13N 43°00' E 004°58'1 2.7
2017-Apr-18 20:53N 43°01' E 004°57'4 2.7
2017-Apr-18 19:27N 43°04' E 004°54'5 2.6
2017-Apr-18 17:28N 43°09' E 004°58'5 8.7
2017-Apr-18 16:54N 43°09' E 005°05'13 9.1
2017-Apr-18 15:28N 43°04' E 005°21'6 9.9
2017-Apr-18 14:54N 43°02' E 005°28'8010.3
2017-Apr-18 07:08N 43°13' E 007°17'212.9
2017-Apr-18 06:59N 43°14' E 007°19'613.3
2017-Apr-18 06:30N 43°17' E 007°27'713.4
2017-Apr-18 06:00N 43°21' E 007°34'713.3
2017-Apr-18 05:30N 43°25' E 007°41'713.3
2017-Apr-18 05:00N 43°29' E 007°49'713.3
2017-Apr-18 04:30N 43°33' E 007°56'713.2
2017-Apr-18 04:00N 43°37' E 008°04'713.2
2017-Apr-18 03:30N 43°40' E 008°11'713.4
2017-Apr-18 03:00N 43°44' E 008°19'713.3
2017-Apr-18 02:30N 43°48' E 008°26'713.2
2017-Apr-18 02:00N 43°54' E 008°32'713.0
2017-Apr-18 01:30N 43°59' E 008°37'713.3
2017-Apr-18 01:00N 44°04' E 008°42'713.0
2017-Apr-18 00:30N 44°10' E 008°47'713.1
2017-Apr-18 00:00N 44°15' E 008°53'612.8
2017-Apr-17 23:30N 44°20' E 008°58'4 8.0
2017-Apr-17 23:00N 44°24' E 008°55'1 1.8
2017-Apr-17 22:30N 44°24' E 008°54'0 0.0
2017-Apr-17 21:57N 44°24' E 008°54'0 0.0
2017-Apr-17 21:27N 44°24' E 008°54'0 0.0
2017-Apr-17 20:54N 44°24' E 008°54'0 0.0
2017-Apr-17 20:30N 44°24' E 008°54'0 0.0
2017-Apr-17 20:00N 44°24' E 008°54'0 0.0
2017-Apr-17 19:30N 44°24' E 008°54'0 0.0
2017-Apr-17 19:00N 44°24' E 008°54'0 0.0
2017-Apr-17 18:30N 44°24' E 008°54'0 0.0
2017-Apr-17 18:00N 44°24' E 008°54'0 0.0
2017-Apr-17 17:30N 44°24' E 008°54'0 0.0
2017-Apr-17 17:00N 44°24' E 008°54'0 0.0
2017-Apr-17 16:30N 44°24' E 008°54'0 0.0
2017-Apr-17 16:00N 44°24' E 008°54'0 0.0
2017-Apr-17 15:30N 44°24' E 008°54'0 0.0
2017-Apr-17 15:00N 44°24' E 008°54'0 0.0
2017-Apr-17 14:30N 44°24' E 008°54'0 0.0
2017-Apr-17 13:30N 44°24' E 008°54'0 0.0
2017-Apr-17 13:00N 44°24' E 008°54'0 0.0
2017-Apr-17 12:30N 44°24' E 008°54'0 0.0
2017-Apr-17 12:00N 44°24' E 008°54'0 0.0
2017-Apr-17 11:30N 44°24' E 008°54'0 0.0
2017-Apr-17 11:00N 44°24' E 008°54'0 0.0
2017-Apr-17 10:30N 44°24' E 008°54'0 0.0
2017-Apr-17 10:00N 44°24' E 008°54'0 0.0
2017-Apr-17 09:30N 44°24' E 008°54'0 0.0
2017-Apr-17 09:00N 44°24' E 008°54'0 0.0
2017-Apr-17 08:30N 44°24' E 008°54'0 0.0
2017-Apr-17 08:00N 44°24' E 008°54'0 0.0
2017-Apr-17 07:30N 44°24' E 008°54'0 0.0
2017-Apr-17 07:00N 44°24' E 008°54'0 0.0
2017-Apr-17 06:30N 44°24' E 008°54'0 0.0
2017-Apr-17 06:00N 44°24' E 008°54'0 0.0
2017-Apr-17 05:27N 44°24' E 008°54'0 0.0
2017-Apr-17 05:00N 44°24' E 008°54'1 2.3
2017-Apr-17 04:31N 44°24' E 008°55'2 4.6
2017-Apr-17 04:00N 44°22' E 008°58'612.4
2017-Apr-17 03:30N 44°17' E 009°02'4 7.9
2017-Apr-17 03:00N 44°13' E 009°03'1 1.5
2017-Apr-17 02:30N 44°13' E 009°02'1 1.9
2017-Apr-17 02:00N 44°14' E 009°03'1 2.4
2017-Apr-17 01:30N 44°13' E 009°04'510.4
2017-Apr-17 01:01N 44°12' E 009°11'1019.8
2017-Apr-17 00:30N 44°07' E 009°23'1019.9
2017-Apr-17 00:00N 44°03' E 009°36'1019.7
2017-Apr-16 23:30N 43°60' E 009°49'511.0
2017-Apr-16 23:00N 44°05' E 009°51'1 2.3
2017-Apr-16 22:27N 44°06' E 009°51'0 0.0
2017-Apr-16 22:00N 44°06' E 009°51'0 0.0
2017-Apr-16 21:30N 44°06' E 009°51'0 0.0
2017-Apr-16 21:00N 44°06' E 009°51'0 0.0
2017-Apr-16 20:30N 44°06' E 009°51'0 0.0
2017-Apr-16 20:00N 44°06' E 009°51'0 0.0
2017-Apr-16 19:30N 44°06' E 009°51'0 0.0
2017-Apr-16 19:00N 44°06' E 009°51'0 0.0
2017-Apr-16 18:30N 44°06' E 009°51'0 0.0
2017-Apr-16 18:00N 44°06' E 009°51'0 0.0
2017-Apr-16 17:30N 44°06' E 009°51'0 0.0
2017-Apr-16 16:57N 44°06' E 009°51'0 0.0
2017-Apr-16 16:30N 44°06' E 009°51'0 0.0
2017-Apr-16 16:00N 44°06' E 009°51'0 0.0
2017-Apr-16 15:30N 44°06' E 009°51'0 0.0
2017-Apr-16 14:57N 44°06' E 009°51'0 0.0
2017-Apr-16 14:00N 44°06' E 009°51'0 0.0
2017-Apr-16 13:30N 44°06' E 009°51'0 0.0
2017-Apr-16 13:00N 44°06' E 009°51'0 0.0
2017-Apr-16 12:30N 44°06' E 009°51'0 0.0
2017-Apr-16 11:57N 44°06' E 009°51'0 0.0
2017-Apr-16 11:30N 44°06' E 009°51'0 0.0
2017-Apr-16 10:57N 44°06' E 009°51'0 0.0
2017-Apr-16 10:30N 44°06' E 009°51'0 0.7
2017-Apr-16 10:00N 44°06' E 009°51'3 5.8
2017-Apr-16 09:30N 44°03' E 009°52'2 3.3
2017-Apr-16 09:00N 44°02' E 009°54'1 1.9
2017-Apr-16 08:29N 44°02' E 009°55'0 0.1
2017-Apr-16 07:53N 44°02' E 009°55'0 0.0
2017-Apr-16 07:29N 44°02' E 009°55'0 0.1
2017-Apr-16 06:59N 44°02' E 009°55'0 0.0
2017-Apr-16 06:29N 44°02' E 009°55'0 0.0
2017-Apr-16 05:59N 44°02' E 009°55'0 0.0
2017-Apr-16 05:29N 44°02' E 009°55'0 0.0
2017-Apr-16 04:56N 44°02' E 009°55'0 0.0
2017-Apr-16 04:26N 44°02' E 009°55'0 0.0
2017-Apr-16 03:59N 44°02' E 009°55'0 0.0
2017-Apr-16 03:29N 44°02' E 009°55'0 0.0
2017-Apr-16 02:59N 44°02' E 009°55'0 0.0
2017-Apr-16 02:29N 44°02' E 009°55'0 0.0
2017-Apr-16 01:59N 44°02' E 009°55'0 0.1
2017-Apr-16 01:29N 44°02' E 009°55'0 0.1
2017-Apr-16 00:59N 44°02' E 009°55'0 0.1
2017-Apr-16 00:29N 44°02' E 009°55'0 0.0
2017-Apr-15 23:59N 44°02' E 009°55'0 0.1
2017-Apr-15 23:29N 44°02' E 009°55'0 0.0
2017-Apr-15 22:59N 44°02' E 009°55'0 0.1
2017-Apr-15 22:29N 44°02' E 009°55'0 0.0
2017-Apr-15 21:59N 44°02' E 009°55'0 0.0
2017-Apr-15 21:29N 44°02' E 009°55'0 0.4
2017-Apr-15 20:59N 44°02' E 009°55'0 0.1
2017-Apr-15 20:29N 44°02' E 009°55'0 0.0
2017-Apr-15 19:59N 44°02' E 009°55'0 0.0
2017-Apr-15 19:29N 44°02' E 009°55'0 0.0
2017-Apr-15 18:59N 44°02' E 009°55'0 0.1
2017-Apr-15 18:29N 44°02' E 009°55'0 0.1
2017-Apr-15 17:59N 44°02' E 009°55'0 0.0
2017-Apr-15 17:29N 44°02' E 009°55'0 0.1
2017-Apr-15 16:59N 44°02' E 009°55'0 0.0
2017-Apr-15 16:29N 44°02' E 009°55'0 0.0
2017-Apr-15 15:53N 44°02' E 009°55'0 0.0
2017-Apr-15 15:29N 44°02' E 009°55'0 0.0
2017-Apr-15 14:59N 44°02' E 009°55'0 0.0
2017-Apr-15 14:29N 44°02' E 009°55'0 0.0
2017-Apr-15 13:59N 44°02' E 009°55'0 0.1
2017-Apr-15 13:26N 44°02' E 009°55'0 0.1
2017-Apr-15 12:59N 44°02' E 009°55'0 0.0
2017-Apr-15 12:29N 44°02' E 009°55'0 0.0
2017-Apr-15 11:59N 44°02' E 009°55'0 0.0
2017-Apr-15 11:29N 44°02' E 009°55'0 0.0
2017-Apr-15 10:59N 44°02' E 009°55'0 0.0
2017-Apr-15 10:29N 44°02' E 009°55'0 0.1
2017-Apr-15 09:59N 44°02' E 009°55'0 0.0
2017-Apr-15 09:29N 44°02' E 009°55'0 0.0
2017-Apr-15 08:59N 44°02' E 009°55'0 0.0
2017-Apr-15 08:29N 44°02' E 009°55'0 0.0
2017-Apr-15 07:56N 44°02' E 009°55'0 0.0
2017-Apr-15 07:26N 44°02' E 009°55'0 0.0
2017-Apr-15 06:59N 44°02' E 009°55'0 0.3
2017-Apr-15 06:30N 44°02' E 009°55'3 6.8
2017-Apr-15 06:01N 43°59' E 009°56'713.2
2017-Apr-15 05:30N 43°52' E 009°55'713.5
2017-Apr-15 05:00N 43°46' E 009°53'713.2
2017-Apr-15 04:30N 43°39' E 009°52'612.6
2017-Apr-15 04:00N 43°33' E 009°54'713.0
2017-Apr-15 03:30N 43°31' E 010°02'612.6
2017-Apr-15 03:00N 43°31' E 010°11'5 9.0
2017-Apr-15 02:30N 43°32' E 010°17'2 4.4
2017-Apr-15 02:00N 43°34' E 010°18'1 1.1
2017-Apr-15 01:29N 43°35' E 010°18'0 0.0
2017-Apr-15 00:59N 43°35' E 010°18'0 0.0
2017-Apr-15 00:29N 43°35' E 010°18'0 0.0
2017-Apr-14 23:59N 43°35' E 010°18'0 0.0
2017-Apr-14 23:29N 43°35' E 010°18'0 0.1
2017-Apr-14 22:59N 43°35' E 010°18'0 0.0
2017-Apr-14 22:29N 43°35' E 010°18'0 0.0
2017-Apr-14 21:53N 43°35' E 010°18'0 0.0
2017-Apr-14 21:29N 43°35' E 010°18'0 0.0
2017-Apr-14 20:53N 43°35' E 010°18'0 0.0
2017-Apr-14 20:29N 43°35' E 010°18'0 0.0
2017-Apr-14 19:59N 43°35' E 010°18'0 0.0
2017-Apr-14 19:26N 43°35' E 010°18'0 0.0
2017-Apr-14 18:56N 43°35' E 010°18'0 0.0
2017-Apr-14 18:26N 43°35' E 010°18'0 0.0
2017-Apr-14 17:59N 43°35' E 010°18'0 0.0
2017-Apr-14 17:29N 43°35' E 010°18'0 0.0
2017-Apr-14 16:59N 43°35' E 010°18'0 0.0
2017-Apr-14 16:29N 43°35' E 010°18'0 0.1
2017-Apr-14 15:59N 43°35' E 010°18'0 0.0
2017-Apr-14 15:29N 43°35' E 010°18'0 0.0
2017-Apr-14 14:59N 43°35' E 010°18'0 0.0
2017-Apr-14 14:29N 43°35' E 010°18'0 0.0
2017-Apr-14 13:29N 43°35' E 010°18'0 0.0
2017-Apr-14 12:56N 43°35' E 010°18'0 0.0
2017-Apr-14 12:29N 43°35' E 010°18'0 0.0
2017-Apr-14 11:53N 43°35' E 010°18'0 0.0
2017-Apr-14 11:29N 43°35' E 010°18'0 0.0
2017-Apr-14 11:00N 43°35' E 010°18'1 1.9
2017-Apr-14 10:31N 43°34' E 010°18'3 6.8
2017-Apr-14 10:01N 43°31' E 010°15'4 8.0
2017-Apr-14 09:31N 43°28' E 010°12'713.3
2017-Apr-14 09:00N 43°21' E 010°10'713.8
2017-Apr-14 08:30N 43°15' E 010°07'815.5
2017-Apr-14 07:59N 43°07' E 010°03'815.7
2017-Apr-14 07:30N 42°60' E 010°00'2316.4
2017-Apr-14 06:06N 42°38' E 009°51'817.0
2017-Apr-14 05:36N 42°29' E 009°50'2716.8
2017-Apr-14 03:59N 42°10' E 010°15'19316.7
2017-Apr-13 16:22N 40°31' E 013°57'37 1.4
2017-Apr-12 13:44N 40°40' E 014°45'1 3.7
2017-Apr-12 13:23N 40°39' E 014°44'  

Dump ship's entire track history